Time;durP1;ratioP1;P1;durP2;ratioP2;P2;SDS_P1;SDS_P2;PMS_P1;PMS_P2;Temp;Humidity;BMP_temperature;BMP_pressure;BME280_temperature;BME280_humidity;BME280_pressure;Samples;Min_cycle;Max_cycle;Signal;HPM_P1;HPM_P2
2021/05/14 00:00:38;;;;;;;0.50;0.50;;;;;;;;;;5031714;28;20187;-63
2021/05/14 00:03:04;;;;;;;0.50;0.50;;;;;;;;;;5032281;28;20177;-63
2021/05/14 00:05:30;;;;;;;0.50;0.50;;;;;;;;;;5032424;28;20180;-63
2021/05/14 00:07:56;;;;;;;0.60;0.60;;;;;;;;;;5032231;28;20201;-63
2021/05/14 00:10:23;;;;;;;0.80;0.80;;;;;;;;;;5031687;28;20181;-63
2021/05/14 00:12:49;;;;;;;0.90;0.90;;;;;;;;;;5014497;28;20222;-63
2021/05/14 00:15:16;;;;;;;0.55;0.55;;;;;;;;;;5032074;28;20619;-63
2021/05/14 00:17:42;;;;;;;0.45;0.45;;;;;;;;;;5032149;28;20199;-63
2021/05/14 00:20:09;;;;;;;0.60;0.60;;;;;;;;;;5031573;28;20536;-63
2021/05/14 00:22:35;;;;;;;0.60;0.60;;;;;;;;;;5032062;28;20172;-63
2021/05/14 00:25:01;;;;;;;0.70;0.70;;;;;;;;;;5032019;28;20168;-63
2021/05/14 00:27:27;;;;;;;0.50;0.50;;;;;;;;;;5031681;28;20205;-63
2021/05/14 00:29:53;;;;;;;0.50;0.50;;;;;;;;;;5031315;28;20177;-63
2021/05/14 00:32:19;;;;;;;0.57;0.57;;;;;;;;;;5032114;28;20584;-63
2021/05/14 00:34:45;;;;;;;0.50;0.50;;;;;;;;;;5031848;28;20196;-63
2021/05/14 00:37:11;;;;;;;0.80;0.50;;;;;;;;;;5031777;28;20434;-63
2021/05/14 00:39:37;;;;;;;0.90;0.90;;;;;;;;;;5031116;28;20772;-63
2021/05/14 00:42:03;;;;;;;0.70;0.70;;;;;;;;;;5031784;28;20172;-63
2021/05/14 00:44:29;;;;;;;0.63;0.63;;;;;;;;;;5031682;28;20212;-63
2021/05/14 00:46:56;;;;;;;0.68;0.60;;;;;;;;;;5031706;28;20283;-63
2021/05/14 00:49:22;;;;;;;0.47;0.47;;;;;;;;;;5031007;28;20681;-63
2021/05/14 00:51:49;;;;;;;0.75;0.75;;;;;;;;;;5031765;28;20191;-63
2021/05/14 00:54:18;;;;;;;0.40;0.40;;;;;;;;;;5031673;28;20200;-64
2021/05/14 00:56:45;;;;;;;0.50;0.50;;;;;;;;;;5013523;28;20215;-63
2021/05/14 00:59:11;;;;;;;0.50;0.50;;;;;;;;;;5030955;28;20188;-63
2021/05/14 01:01:37;;;;;;;0.40;0.40;;;;;;;;;;5031447;28;20259;-63
2021/05/14 01:04:03;;;;;;;0.60;0.60;;;;;;;;;;5013298;28;20192;-63
2021/05/14 01:06:29;;;;;;;0.93;0.52;;;;;;;;;;5013598;28;20239;-63
2021/05/14 01:08:57;;;;;;;1.00;1.00;;;;;;;;;;5030839;28;20593;-63
2021/05/14 01:11:24;;;;;;;0.60;0.60;;;;;;;;;;5031347;28;20449;-63
2021/05/14 01:13:50;;;;;;;0.75;0.73;;;;;;;;;;5031323;28;21005;-63
2021/05/14 01:16:16;;;;;;;0.70;0.70;;;;;;;;;;5031528;28;20564;-63
2021/05/14 01:18:42;;;;;;;0.60;0.60;;;;;;;;;;5031343;28;20234;-63
2021/05/14 01:21:08;;;;;;;1.40;1.23;;;;;;;;;;5030808;28;20588;-63
2021/05/14 01:23:34;;;;;;;0.47;0.47;;;;;;;;;;5031115;28;20231;-63
2021/05/14 01:26:00;;;;;;;1.20;0.55;;;;;;;;;;5031119;28;20491;-63
2021/05/14 01:28:26;;;;;;;0.93;0.80;;;;;;;;;;5031134;28;20196;-63
2021/05/14 01:30:53;;;;;;;0.73;0.73;;;;;;;;;;5030630;28;20173;-63
2021/05/14 01:33:19;;;;;;;0.60;0.60;;;;;;;;;;5029891;28;20470;-63
2021/05/14 01:35:46;;;;;;;0.40;0.40;;;;;;;;;;5031092;28;20199;-63
2021/05/14 01:38:12;;;;;;;0.52;0.50;;;;;;;;;;5031148;28;20193;-63
2021/05/14 01:40:38;;;;;;;0.40;0.40;;;;;;;;;;5029317;28;20544;-63
2021/05/14 01:43:04;;;;;;;0.47;0.47;;;;;;;;;;5031037;28;20180;-63
2021/05/14 01:45:30;;;;;;;0.60;0.60;;;;;;;;;;5031143;28;20168;-63
2021/05/14 01:47:56;;;;;;;0.60;0.60;;;;;;;;;;5030939;28;20216;-63
2021/05/14 01:50:22;;;;;;;0.93;0.90;;;;;;;;;;5030401;28;20169;-63
2021/05/14 01:52:48;;;;;;;0.47;0.47;;;;;;;;;;5031091;28;20219;-63
2021/05/14 01:55:14;;;;;;;0.40;0.40;;;;;;;;;;5030905;28;20855;-63
2021/05/14 01:57:41;;;;;;;0.40;0.40;;;;;;;;;;5031077;28;20743;-63
2021/05/14 02:00:07;;;;;;;0.60;0.60;;;;;;;;;;5030246;28;20230;-63
2021/05/14 02:02:33;;;;;;;1.00;1.00;;;;;;;;;;5031137;28;20668;-63
2021/05/14 02:04:59;;;;;;;0.85;0.70;;;;;;;;;;5031075;28;20556;-63
2021/05/14 02:07:25;;;;;;;0.60;0.60;;;;;;;;;;5030810;28;20207;-63
2021/05/14 02:09:52;;;;;;;0.50;0.50;;;;;;;;;;5030089;28;20435;-64
2021/05/14 02:12:18;;;;;;;0.50;0.50;;;;;;;;;;5030969;28;20184;-63
2021/05/14 02:14:44;;;;;;;0.68;0.68;;;;;;;;;;5031511;28;20209;-63
2021/05/14 02:17:10;;;;;;;0.50;0.50;;;;;;;;;;5034327;28;20668;-63
2021/05/14 02:19:36;;;;;;;0.57;0.57;;;;;;;;;;5033766;28;20173;-63
2021/05/14 02:22:04;;;;;;;0.52;0.52;;;;;;;;;;5034371;28;20172;-63
2021/05/14 02:24:30;;;;;;;0.50;0.50;;;;;;;;;;5034370;28;20173;-63
2021/05/14 02:26:56;;;;;;;0.73;0.73;;;;;;;;;;5034126;28;20561;-63
2021/05/14 02:29:22;;;;;;;0.77;0.77;;;;;;;;;;5033245;28;20404;-63
2021/05/14 02:31:48;;;;;;;0.63;0.63;;;;;;;;;;5033756;28;20176;-63
2021/05/14 02:34:14;;;;;;;0.40;0.40;;;;;;;;;;5033822;28;20211;-63
2021/05/14 02:36:40;;;;;;;0.82;0.82;;;;;;;;;;5033798;28;20192;-63
2021/05/14 02:39:08;;;;;;;0.70;0.70;;;;;;;;;;5033268;28;20306;-63
2021/05/14 02:41:34;;;;;;;0.60;0.60;;;;;;;;;;5034037;28;20200;-63
2021/05/14 02:44:00;;;;;;;0.50;0.50;;;;;;;;;;5033962;28;20266;-63
2021/05/14 02:46:27;;;;;;;0.50;0.50;;;;;;;;;;5033688;28;20208;-63
2021/05/14 02:48:53;;;;;;;0.80;0.80;;;;;;;;;;5033238;28;20196;-63
2021/05/14 02:51:19;;;;;;;0.60;0.60;;;;;;;;;;5033819;28;20576;-63
2021/05/14 02:53:45;;;;;;;0.60;0.60;;;;;;;;;;5033707;28;20208;-63
2021/05/14 02:56:11;;;;;;;0.60;0.60;;;;;;;;;;5033717;28;20184;-63
2021/05/14 02:58:37;;;;;;;1.00;1.00;;;;;;;;;;5033282;28;20203;-63
2021/05/14 03:01:03;;;;;;;0.90;0.87;;;;;;;;;;5033102;28;20169;-63
2021/05/14 03:03:29;;;;;;;0.45;0.45;;;;;;;;;;5033621;28;20740;-63
2021/05/14 03:05:55;;;;;;;0.82;0.82;;;;;;;;;;5033510;28;20703;-63
2021/05/14 03:08:21;;;;;;;0.88;0.80;;;;;;;;;;5033610;28;20254;-64
2021/05/14 03:10:47;;;;;;;0.45;0.45;;;;;;;;;;5032728;28;20227;-63
2021/05/14 03:13:13;;;;;;;0.65;0.65;;;;;;;;;;5033416;28;20187;-63
2021/05/14 03:15:39;;;;;;;0.50;0.50;;;;;;;;;;5033451;28;20644;-63
2021/05/14 03:18:05;;;;;;;0.80;0.80;;;;;;;;;;5033243;28;20509;-63
2021/05/14 03:20:31;;;;;;;0.50;0.50;;;;;;;;;;5032488;28;20403;-63
2021/05/14 03:22:57;;;;;;;0.60;0.60;;;;;;;;;;5033225;28;20176;-63
2021/05/14 03:25:24;;;;;;;0.50;0.50;;;;;;;;;;5033471;28;20168;-63
2021/05/14 03:27:50;;;;;;;0.55;0.55;;;;;;;;;;5014565;28;20235;-63
2021/05/14 03:30:16;;;;;;;0.70;0.70;;;;;;;;;;5014804;28;20201;-63
2021/05/14 03:32:44;;;;;;;0.75;0.75;;;;;;;;;;5032695;28;20199;-63
2021/05/14 03:35:10;;;;;;;0.70;0.70;;;;;;;;;;5032956;28;20287;-63
2021/05/14 03:37:37;;;;;;;0.65;0.65;;;;;;;;;;5032759;28;20245;-63
2021/05/14 03:40:14;;;;;;;0.40;0.40;;;;;;;;;;5032270;28;20536;-63
2021/05/14 03:42:40;;;;;;;0.82;0.82;;;;;;;;;;5032880;28;20180;-63
2021/05/14 03:45:07;;;;;;;0.40;0.40;;;;;;;;;;5032851;28;20197;-63
2021/05/14 03:47:33;;;;;;;0.82;0.82;;;;;;;;;;5032540;28;20207;-64
2021/05/14 03:49:59;;;;;;;0.40;0.40;;;;;;;;;;5032128;28;20263;-63
2021/05/14 03:52:25;;;;;;;0.88;0.88;;;;;;;;;;5032821;28;20203;-63
2021/05/14 03:54:51;;;;;;;0.40;0.40;;;;;;;;;;5032486;28;20231;-63
2021/05/14 03:57:17;;;;;;;0.63;0.63;;;;;;;;;;5032345;28;20610;-63
2021/05/14 03:59:43;;;;;;;0.90;0.90;;;;;;;;;;5031927;28;20605;-63
2021/05/14 04:02:11;;;;;;;0.70;0.70;;;;;;;;;;5032475;28;20248;-63
2021/05/14 04:04:37;;;;;;;0.70;0.70;;;;;;;;;;5032475;28;20408;-63
2021/05/14 04:07:05;;;;;;;1.10;1.10;;;;;;;;;;5032295;28;20254;-63
2021/05/14 04:09:33;;;;;;;0.40;0.40;;;;;;;;;;5031895;28;20238;-63
2021/05/14 04:14:31;;;;;;;0.80;0.80;;;;;;;;;;5032362;28;20242;-63
2021/05/14 04:16:58;;;;;;;0.50;0.50;;;;;;;;;;5032126;28;20185;-63
2021/05/14 04:19:25;;;;;;;0.60;0.60;;;;;;;;;;5031698;28;20176;-63
2021/05/14 04:21:53;;;;;;;0.50;0.50;;;;;;;;;;5032409;28;20568;-63
2021/05/14 04:24:19;;;;;;;0.60;0.60;;;;;;;;;;5032219;28;20183;-63
2021/05/14 04:26:45;;;;;;;0.60;0.60;;;;;;;;;;5031958;28;20278;-63
2021/05/14 04:29:11;;;;;;;0.55;0.55;;;;;;;;;;5031282;28;20186;-63
2021/05/14 04:31:37;;;;;;;0.60;0.60;;;;;;;;;;5031840;28;20173;-63
2021/05/14 04:34:03;;;;;;;0.60;0.60;;;;;;;;;;5031880;28;20854;-63
2021/05/14 04:36:29;;;;;;;1.65;0.95;;;;;;;;;;5031848;28;20791;-63
2021/05/14 04:38:55;;;;;;;0.80;0.80;;;;;;;;;;5031037;28;20175;-63
2021/05/14 04:41:21;;;;;;;0.50;0.50;;;;;;;;;;5031717;28;20819;-63
2021/05/14 04:43:47;;;;;;;0.40;0.40;;;;;;;;;;5032231;28;20415;-63
2021/05/14 04:46:13;;;;;;;0.67;0.67;;;;;;;;;;5031737;28;20644;-63
2021/05/14 04:48:39;;;;;;;1.30;1.00;;;;;;;;;;5031557;28;20411;-63
2021/05/14 04:51:05;;;;;;;0.63;0.63;;;;;;;;;;5031175;28;20177;-63
2021/05/14 04:53:31;;;;;;;0.85;0.65;;;;;;;;;;5031565;28;20408;-63
2021/05/14 04:55:58;;;;;;;0.60;0.60;;;;;;;;;;5031679;28;20176;-63
2021/05/14 04:58:24;;;;;;;0.65;0.65;;;;;;;;;;5031318;28;20212;-63
2021/05/14 05:00:50;;;;;;;0.40;0.40;;;;;;;;;;5030924;28;20255;-63
2021/05/14 05:03:16;;;;;;;0.60;0.60;;;;;;;;;;5031602;28;20172;-63
2021/05/14 05:05:42;;;;;;;0.85;0.85;;;;;;;;;;5031643;28;20204;-63
2021/05/14 05:08:08;;;;;;;0.40;0.40;;;;;;;;;;5031549;28;20289;-63
2021/05/14 05:10:34;;;;;;;0.50;0.50;;;;;;;;;;5031002;28;20461;-63
2021/05/14 05:13:00;;;;;;;0.60;0.60;;;;;;;;;;5031347;28;20635;-63
2021/05/14 05:15:26;;;;;;;1.10;1.00;;;;;;;;;;5031307;28;20459;-63
2021/05/14 05:17:52;;;;;;;0.60;0.60;;;;;;;;;;5031345;28;20970;-63
2021/05/14 05:20:18;;;;;;;0.60;0.60;;;;;;;;;;5029448;28;20481;-63
2021/05/14 05:22:44;;;;;;;0.50;0.50;;;;;;;;;;5010479;28;20652;-63
2021/05/14 05:25:10;;;;;;;0.55;0.52;;;;;;;;;;5011190;28;20440;-63
2021/05/14 05:27:36;;;;;;;0.50;0.50;;;;;;;;;;5011002;28;20652;-63
2021/05/14 05:30:02;;;;;;;0.50;0.50;;;;;;;;;;5010830;28;20205;-63
2021/05/14 05:32:28;;;;;;;0.60;0.60;;;;;;;;;;5011478;28;20213;-63
2021/05/14 05:34:54;;;;;;;0.80;0.80;;;;;;;;;;5011214;28;20298;-64
2021/05/14 05:37:22;;;;;;;0.80;0.80;;;;;;;;;;5011084;28;20484;-63
2021/05/14 05:39:48;;;;;;;0.98;0.98;;;;;;;;;;5010339;28;20671;-63
2021/05/14 05:42:14;;;;;;;0.40;0.40;;;;;;;;;;5011376;28;20645;-63
2021/05/14 05:44:40;;;;;;;0.68;0.60;;;;;;;;;;5011458;28;20192;-63
2021/05/14 05:47:07;;;;;;;0.50;0.50;;;;;;;;;;5011031;28;20205;-63
2021/05/14 05:49:33;;;;;;;0.50;0.50;;;;;;;;;;5010918;28;20779;-63
2021/05/14 05:51:59;;;;;;;0.60;0.60;;;;;;;;;;5014511;28;20178;-63
2021/05/14 05:54:25;;;;;;;0.80;0.80;;;;;;;;;;5014909;28;20674;-63
2021/05/14 05:56:55;;;;;;;0.63;0.63;;;;;;;;;;5038465;23;20444;-62
2021/05/14 05:59:21;;;;;;;1.02;0.70;;;;;;;;;;5011325;28;20713;-63
2021/05/14 06:01:49;;;;;;;0.60;0.60;;;;;;;;;;4997291;28;20269;-63
2021/05/14 06:04:15;;;;;;;0.55;0.55;;;;;;;;;;5014550;28;20405;-64
2021/05/14 06:06:41;;;;;;;0.50;0.50;;;;;;;;;;5014609;28;20244;-63
2021/05/14 06:09:07;;;;;;;0.70;0.70;;;;;;;;;;5013878;28;20891;-63
2021/05/14 06:11:33;;;;;;;0.60;0.60;;;;;;;;;;5014516;28;20200;-64
2021/05/14 06:13:59;;;;;;;0.57;0.57;;;;;;;;;;5014356;28;20216;-63
2021/05/14 06:16:26;;;;;;;0.40;0.40;;;;;;;;;;5014466;28;20174;-64
2021/05/14 06:19:15;;;;;;;1.85;1.58;;;;;;;;;;5013650;28;20448;-63
2021/05/14 06:21:49;;;;;;;0.60;0.60;;;;;;;;;;5014357;28;20173;-64
2021/05/14 06:24:15;;;;;;;0.40;0.40;;;;;;;;;;5013955;28;20177;-64
2021/05/14 06:26:42;;;;;;;0.40;0.40;;;;;;;;;;5014258;28;20193;-64
2021/05/14 06:29:08;;;;;;;0.50;0.50;;;;;;;;;;5013471;28;20231;-64
2021/05/14 06:31:34;;;;;;;1.13;0.63;;;;;;;;;;5014140;28;20193;-64
2021/05/14 06:34:01;;;;;;;0.40;0.40;;;;;;;;;;5013981;28;20224;-64
2021/05/14 06:36:27;;;;;;;0.45;0.45;;;;;;;;;;5013901;28;20608;-64
2021/05/14 06:38:53;;;;;;;0.50;0.50;;;;;;;;;;5013364;28;20564;-63
2021/05/14 06:41:19;;;;;;;0.60;0.60;;;;;;;;;;5000081;28;20174;-64
2021/05/14 06:43:45;;;;;;;0.40;0.40;;;;;;;;;;4994210;28;20210;-64
2021/05/14 06:46:11;;;;;;;0.32;0.32;;;;;;;;;;4994099;28;20657;-64
2021/05/14 06:48:37;;;;;;;0.40;0.40;;;;;;;;;;4993869;28;20202;-64
2021/05/14 06:51:03;;;;;;;0.40;0.40;;;;;;;;;;4993452;28;20434;-63
2021/05/14 06:53:30;;;;;;;1.40;0.77;;;;;;;;;;4994278;28;20499;-64
2021/05/14 06:55:56;;;;;;;0.57;0.57;;;;;;;;;;4993744;28;20199;-64
2021/05/14 06:58:22;;;;;;;0.40;0.40;;;;;;;;;;4993648;28;20219;-64
2021/05/14 07:00:48;;;;;;;2.53;0.53;;;;;;;;;;4992641;28;20195;-64
2021/05/14 07:03:14;;;;;;;0.40;0.40;;;;;;;;;;4993480;28;20533;-64
2021/05/14 07:05:40;;;;;;;0.50;0.50;;;;;;;;;;4993858;28;20435;-64
2021/05/14 07:08:07;;;;;;;0.45;0.43;;;;;;;;;;4993819;28;20456;-64
2021/05/14 07:10:33;;;;;;;0.50;0.40;;;;;;;;;;4993229;28;20185;-64
2021/05/14 07:12:59;;;;;;;0.40;0.40;;;;;;;;;;4993910;28;20408;-64
2021/05/14 07:15:25;;;;;;;0.73;0.50;;;;;;;;;;4993165;28;20453;-64
2021/05/14 07:17:52;;;;;;;0.40;0.40;;;;;;;;;;4993276;28;20426;-64
2021/05/14 07:20:20;;;;;;;0.40;0.30;;;;;;;;;;4992230;28;20507;-64
2021/05/14 07:22:46;;;;;;;0.40;0.40;;;;;;;;;;4993775;28;20438;-64
2021/05/14 07:25:12;;;;;;;0.40;0.40;;;;;;;;;;4993705;28;20699;-64
2021/05/14 07:27:38;;;;;;;0.43;0.43;;;;;;;;;;4994051;28;20758;-64
2021/05/14 07:30:04;;;;;;;0.40;0.30;;;;;;;;;;4993742;28;20388;-63
2021/05/14 07:32:31;;;;;;;1.60;0.63;;;;;;;;;;4993968;28;20423;-64
2021/05/14 07:34:57;;;;;;;0.40;0.30;;;;;;;;;;4994171;28;20457;-64
2021/05/14 07:37:23;;;;;;;0.50;0.50;;;;;;;;;;4993742;28;20924;-64
2021/05/14 07:39:49;;;;;;;0.50;0.50;;;;;;;;;;4992716;28;20412;-64
2021/05/14 07:42:15;;;;;;;0.60;0.60;;;;;;;;;;4993564;28;20408;-64
2021/05/14 07:44:43;;;;;;;0.50;0.50;;;;;;;;;;4993179;28;20458;-64
2021/05/14 07:47:09;;;;;;;0.40;0.40;;;;;;;;;;4992949;28;20509;-64
2021/05/14 07:49:35;;;;;;;0.60;0.60;;;;;;;;;;4992523;28;20843;-64
2021/05/14 07:52:01;;;;;;;0.40;0.40;;;;;;;;;;4993291;28;20817;-64
2021/05/14 07:54:27;;;;;;;0.40;0.40;;;;;;;;;;4992855;28;20461;-64
2021/05/14 07:56:53;;;;;;;0.40;0.40;;;;;;;;;;4992517;28;20433;-63
2021/05/14 07:59:19;;;;;;;0.40;0.40;;;;;;;;;;4991919;28;20863;-64
2021/05/14 08:01:45;;;;;;;0.50;0.50;;;;;;;;;;4992764;28;20455;-64
2021/05/14 08:04:11;;;;;;;0.43;0.43;;;;;;;;;;4992798;28;20213;-64
2021/05/14 08:06:37;;;;;;;0.90;0.90;;;;;;;;;;4992661;28;20411;-64
2021/05/14 08:09:07;;;;;;;0.80;0.80;;;;;;;;;;4991647;28;20200;-64
2021/05/14 08:11:33;;;;;;;0.40;0.30;;;;;;;;;;4992652;28;20784;-64
2021/05/14 08:13:59;;;;;;;0.40;0.40;;;;;;;;;;4991971;28;20508;-64
2021/05/14 08:16:25;;;;;;;0.63;0.63;;;;;;;;;;4992257;28;20862;-64
2021/05/14 08:18:51;;;;;;;0.40;0.40;;;;;;;;;;4991673;28;20941;-64
2021/05/14 08:21:19;;;;;;;0.40;0.37;;;;;;;;;;4992284;28;20398;-66
2021/05/14 08:23:45;;;;;;;0.43;0.43;;;;;;;;;;4992222;28;20501;-64
2021/05/14 08:26:12;;;;;;;0.50;0.50;;;;;;;;;;4992230;28;20410;-64
2021/05/14 08:28:38;;;;;;;0.50;0.50;;;;;;;;;;4992055;28;20464;-63
2021/05/14 08:31:04;;;;;;;0.60;0.60;;;;;;;;;;4990797;28;20459;-64
2021/05/14 08:33:30;;;;;;;0.40;0.40;;;;;;;;;;4992221;28;20777;-64
2021/05/14 08:35:56;;;;;;;0.40;0.40;;;;;;;;;;4991739;28;20448;-64
2021/05/14 08:38:24;;;;;;;0.60;0.47;;;;;;;;;;4991227;28;20789;-64
2021/05/14 08:40:50;;;;;;;0.40;0.30;;;;;;;;;;5006663;28;20644;-66
2021/05/14 08:43:16;;;;;;;0.40;0.40;;;;;;;;;;4991957;28;20401;-65
2021/05/14 08:45:42;;;;;;;0.40;0.40;;;;;;;;;;4992154;28;20413;-65
2021/05/14 08:48:12;;;;;;;0.50;0.50;;;;;;;;;;4992023;28;20421;-65
2021/05/14 08:50:38;;;;;;;0.40;0.40;;;;;;;;;;4989678;28;20392;-66
2021/05/14 08:53:04;;;;;;;0.40;0.40;;;;;;;;;;4992011;28;20387;-65
2021/05/14 08:55:30;;;;;;;0.47;0.47;;;;;;;;;;4991992;28;20518;-65
2021/05/14 08:57:56;;;;;;;0.40;0.40;;;;;;;;;;4991854;28;20907;-65
2021/05/14 09:00:22;;;;;;;0.40;0.40;;;;;;;;;;4991143;28;20459;-64
2021/05/14 09:02:51;;;;;;;0.83;0.60;;;;;;;;;;4991951;28;20385;-64
2021/05/14 09:05:32;;;;;;;0.50;0.50;;;;;;;;;;4990229;28;20425;-64
2021/05/14 09:07:59;;;;;;;0.87;0.87;;;;;;;;;;4991556;28;20437;-65
2021/05/14 09:10:26;;;;;;;0.50;0.43;;;;;;;;;;4990799;28;20406;-65
2021/05/14 09:12:52;;;;;;;0.50;0.40;;;;;;;;;;4991664;28;20414;-65
2021/05/14 09:15:29;;;;;;;0.47;0.40;;;;;;;;;;4991369;28;20563;-64
2021/05/14 09:18:06;;;;;;;0.50;0.50;;;;;;;;;;4991914;28;20441;-65
2021/05/14 09:20:34;;;;;;;0.50;0.50;;;;;;;;;;4990939;28;20827;-65
2021/05/14 09:23:00;;;;;;;0.40;0.30;;;;;;;;;;4991568;28;20416;-64
2021/05/14 09:25:27;;;;;;;0.70;0.60;;;;;;;;;;4993666;28;20501;-64
2021/05/14 09:27:53;;;;;;;0.50;0.50;;;;;;;;;;4995421;28;20437;-64
2021/05/14 09:30:19;;;;;;;0.63;0.50;;;;;;;;;;4994687;28;20421;-64
2021/05/14 09:32:45;;;;;;;0.50;0.50;;;;;;;;;;4995300;28;20930;-64
2021/05/14 09:35:11;;;;;;;0.60;0.60;;;;;;;;;;4995424;28;20463;-64
2021/05/14 09:37:47;;;;;;;0.50;0.47;;;;;;;;;;4994781;28;20449;-64
2021/05/14 09:40:18;;;;;;;0.40;0.40;;;;;;;;;;4994539;28;20778;-64
2021/05/14 09:42:45;;;;;;;0.60;0.50;;;;;;;;;;4995168;28;20427;-64
2021/05/14 09:45:15;;;;;;;0.53;0.53;;;;;;;;;;4995122;28;20418;-64
2021/05/14 09:47:41;;;;;;;0.83;0.50;;;;;;;;;;4994993;28;20425;-64
2021/05/14 09:50:25;;;;;;;0.40;0.40;;;;;;;;;;4994395;28;20409;-64
2021/05/14 09:53:07;;;;;;;0.80;0.80;;;;;;;;;;5010132;28;20504;-64
2021/05/14 09:55:35;;;;;;;1.33;1.23;;;;;;;;;;4994847;28;20467;-64
2021/05/14 09:58:03;;;;;;;0.40;0.40;;;;;;;;;;4994619;28;20457;-64
2021/05/14 10:00:29;;;;;;;0.40;0.40;;;;;;;;;;4994217;28;20401;-64
2021/05/14 10:02:57;;;;;;;0.50;0.50;;;;;;;;;;4994894;28;20493;-64
2021/05/14 10:05:24;;;;;;;0.60;0.60;;;;;;;;;;4994918;28;20419;-64
2021/05/14 10:07:50;;;;;;;0.40;0.40;;;;;;;;;;4994480;28;20507;-64
2021/05/14 10:10:16;;;;;;;0.40;0.37;;;;;;;;;;4994047;28;20506;-66
2021/05/14 10:12:42;;;;;;;0.53;0.53;;;;;;;;;;4994791;28;20406;-64
2021/05/14 10:15:09;;;;;;;1.53;1.20;;;;;;;;;;4994632;28;20461;-64
2021/05/14 10:17:35;;;;;;;2.30;0.73;;;;;;;;;;4994552;28;20461;-64
2021/05/14 10:20:02;;;;;;;0.40;0.40;;;;;;;;;;4994032;28;20427;-64
2021/05/14 10:22:29;;;;;;;0.60;0.50;;;;;;;;;;4994482;28;20448;-64
2021/05/14 10:25:00;;;;;;;0.40;0.40;;;;;;;;;;4994833;28;20923;-63
2021/05/14 10:27:27;;;;;;;0.50;0.50;;;;;;;;;;4994522;28;20289;-64
2021/05/14 10:29:54;;;;;;;0.50;0.50;;;;;;;;;;4993903;28;20412;-64
2021/05/14 10:32:38;;;;;;;0.40;0.30;;;;;;;;;;4994374;28;20421;-64
2021/05/14 10:35:05;;;;;;;0.90;0.60;;;;;;;;;;4994111;28;20552;-64
2021/05/14 10:37:52;;;;;;;0.60;0.60;;;;;;;;;;4993933;28;20433;-64
2021/05/14 10:40:30;;;;;;;0.70;0.50;;;;;;;;;;4993151;28;20420;-64
2021/05/14 10:42:57;;;;;;;0.50;0.50;;;;;;;;;;4994197;28;20582;-64
2021/05/14 10:45:36;;;;;;;0.40;0.40;;;;;;;;;;4994151;28;20622;-64
2021/05/14 10:48:03;;;;;;;1.63;0.82;;;;;;;;;;4994205;28;20404;-63
2021/05/14 10:50:36;;;;;;;0.85;0.85;;;;;;;;;;4993379;28;20226;-64
2021/05/14 10:53:17;;;;;;;0.60;0.60;;;;;;;;;;4994092;28;20178;-63
2021/05/14 10:55:44;;;;;;;0.60;0.60;;;;;;;;;;4993962;28;20197;-63
2021/05/14 10:58:10;;;;;;;0.80;0.80;;;;;;;;;;4993589;28;20207;-64
2021/05/14 11:00:37;;;;;;;0.70;0.67;;;;;;;;;;4993337;28;20814;-64
2021/05/14 11:03:12;;;;;;;0.60;0.60;;;;;;;;;;4994130;28;20402;-64
2021/05/14 11:05:40;;;;;;;0.40;0.40;;;;;;;;;;4994043;28;20384;-64
2021/05/14 11:08:08;;;;;;;1.13;0.70;;;;;;;;;;4992525;28;20429;-64
2021/05/14 11:10:35;;;;;;;5.70;0.60;;;;;;;;;;4993327;28;20895;-64
2021/05/14 11:13:21;;;;;;;0.63;0.63;;;;;;;;;;4993921;28;20412;-64
2021/05/14 11:15:47;;;;;;;0.40;0.40;;;;;;;;;;4993990;28;20505;-64
2021/05/14 11:18:17;;;;;;;0.93;0.60;;;;;;;;;;4993892;28;20496;-64
2021/05/14 11:20:44;;;;;;;0.70;0.60;;;;;;;;;;4993143;28;20418;-64
2021/05/14 11:23:28;;;;;;;0.40;0.40;;;;;;;;;;4994038;28;20909;-64
2021/05/14 11:25:55;;;;;;;0.40;0.40;;;;;;;;;;4993949;28;20408;-64
2021/05/14 11:28:36;;;;;;;0.47;0.30;;;;;;;;;;4993812;28;20411;-64
2021/05/14 11:31:02;;;;;;;0.50;0.50;;;;;;;;;;5008397;28;21291;-64
2021/05/14 11:33:29;;;;;;;0.80;0.47;;;;;;;;;;4993722;28;20420;-64
2021/05/14 11:35:55;;;;;;;0.50;0.50;;;;;;;;;;4993976;28;20465;-64
2021/05/14 11:38:21;;;;;;;4.00;0.60;;;;;;;;;;4993887;28;20433;-64
2021/05/14 11:40:49;;;;;;;0.50;0.33;;;;;;;;;;4993020;28;20392;-64
2021/05/14 11:43:15;;;;;;;0.40;0.37;;;;;;;;;;4993649;28;20409;-64
2021/05/14 11:45:46;;;;;;;0.40;0.30;;;;;;;;;;4993358;28;20760;-64
2021/05/14 11:48:18;;;;;;;0.40;0.30;;;;;;;;;;4992637;28;20404;-64
2021/05/14 11:50:48;;;;;;;0.40;0.40;;;;;;;;;;4992698;28;20445;-64
2021/05/14 11:53:15;;;;;;;0.90;0.80;;;;;;;;;;4993368;28;20396;-64
2021/05/14 11:55:42;;;;;;;0.50;0.40;;;;;;;;;;4993223;28;20450;-64
2021/05/14 11:58:08;;;;;;;0.40;0.40;;;;;;;;;;5032705;22;21006;-65
2021/05/14 12:00:34;;;;;;;0.60;0.30;;;;;;;;;;5031439;28;20583;-65
2021/05/14 12:03:02;;;;;;;0.90;0.40;;;;;;;;;;5032049;28;20396;-65
2021/05/14 12:05:29;;;;;;;0.40;0.40;;;;;;;;;;5032040;28;20370;-65
2021/05/14 12:08:09;;;;;;;0.40;0.30;;;;;;;;;;5031867;28;20415;-65
2021/05/14 12:10:35;;;;;;;0.40;0.37;;;;;;;;;;5031267;28;20381;-65
2021/05/14 12:13:01;;;;;;;1.03;0.40;;;;;;;;;;5031940;28;20400;-65
2021/05/14 12:15:27;;;;;;;0.50;0.50;;;;;;;;;;5031888;28;20822;-65
2021/05/14 12:18:00;;;;;;;0.50;0.50;;;;;;;;;;5031574;28;20438;-65
2021/05/14 12:20:31;;;;;;;0.40;0.30;;;;;;;;;;5013494;28;20419;-65
2021/05/14 12:22:59;;;;;;;0.63;0.60;;;;;;;;;;5031761;28;20414;-65
2021/05/14 12:25:26;;;;;;;0.50;0.47;;;;;;;;;;5014033;28;20398;-65
2021/05/14 12:27:52;;;;;;;0.40;0.40;;;;;;;;;;5031600;28;20402;-65
2021/05/14 12:30:18;;;;;;;0.50;0.50;;;;;;;;;;5031084;28;20382;-65
2021/05/14 12:32:54;;;;;;;0.70;0.60;;;;;;;;;;5031463;28;20515;-65
2021/05/14 12:35:21;;;;;;;0.50;0.50;;;;;;;;;;5031490;28;20459;-65
2021/05/14 12:37:55;;;;;;;0.40;0.40;;;;;;;;;;5031488;28;20467;-65
2021/05/14 12:40:31;;;;;;;0.40;0.30;;;;;;;;;;5030863;28;20784;-65
2021/05/14 12:43:04;;;;;;;0.60;0.60;;;;;;;;;;5031487;28;20807;-65
2021/05/14 12:45:30;;;;;;;0.50;0.50;;;;;;;;;;5031348;28;20405;-65
2021/05/14 12:47:56;;;;;;;0.40;0.40;;;;;;;;;;5031345;28;21023;-65
2021/05/14 12:50:26;;;;;;;0.70;0.53;;;;;;;;;;5030489;28;20989;-65
2021/05/14 12:52:52;;;;;;;0.80;0.77;;;;;;;;;;5031352;28;20419;-65
2021/05/14 12:55:20;;;;;;;0.53;0.53;;;;;;;;;;5031076;28;20933;-65
2021/05/14 12:58:01;;;;;;;0.40;0.40;;;;;;;;;;5030926;28;20807;-65
2021/05/14 13:00:33;;;;;;;0.40;0.40;;;;;;;;;;5030599;28;20442;-65
2021/05/14 13:03:02;;;;;;;1.37;0.60;;;;;;;;;;5031450;28;20404;-65
2021/05/14 13:05:33;;;;;;;0.60;0.40;;;;;;;;;;5031110;28;20438;-65
2021/05/14 13:07:59;;;;;;;0.50;0.47;;;;;;;;;;5031160;28;20952;-65
2021/05/14 13:10:45;;;;;;;0.40;0.30;;;;;;;;;;5030768;28;20452;-65
2021/05/14 13:13:11;;;;;;;0.40;0.30;;;;;;;;;;5031502;28;20407;-65
2021/05/14 13:15:37;;;;;;;0.40;0.40;;;;;;;;;;5031228;28;20444;-65
2021/05/14 13:18:03;;;;;;;0.60;0.40;;;;;;;;;;5030976;28;20405;-65
2021/05/14 13:20:29;;;;;;;0.40;0.40;;;;;;;;;;5030422;28;20404;-65
2021/05/14 13:22:56;;;;;;;0.93;0.50;;;;;;;;;;5030419;28;20415;-65
2021/05/14 13:25:22;;;;;;;1.40;0.70;;;;;;;;;;5030896;28;20411;-65
2021/05/14 13:27:48;;;;;;;0.60;0.40;;;;;;;;;;5030765;28;20464;-65
2021/05/14 13:30:14;;;;;;;0.50;0.40;;;;;;;;;;5030268;28;20410;-65
2021/05/14 13:32:40;;;;;;;0.53;0.53;;;;;;;;;;5030683;28;20473;-65
2021/05/14 13:35:06;;;;;;;0.70;0.40;;;;;;;;;;5031250;28;20429;-66
2021/05/14 13:37:33;;;;;;;0.47;0.43;;;;;;;;;;5029982;28;20430;-65
2021/05/14 13:39:59;;;;;;;1.00;0.50;;;;;;;;;;5030003;28;20411;-65
2021/05/14 13:42:26;;;;;;;0.90;0.50;;;;;;;;;;5030758;28;20403;-65
2021/05/14 13:44:52;;;;;;;0.40;0.40;;;;;;;;;;5030921;28;20403;-65
2021/05/14 13:47:18;;;;;;;0.63;0.63;;;;;;;;;;5030574;28;20465;-65
2021/05/14 13:49:44;;;;;;;1.23;0.70;;;;;;;;;;5029999;28;20407;-65
2021/05/14 13:52:11;;;;;;;0.50;0.40;;;;;;;;;;5030777;28;20418;-65
2021/05/14 13:54:37;;;;;;;0.50;0.40;;;;;;;;;;5030416;28;20553;-65
2021/05/14 13:57:03;;;;;;;0.53;0.53;;;;;;;;;;5030611;28;20403;-65
2021/05/14 13:59:29;;;;;;;0.40;0.30;;;;;;;;;;5029742;28;20442;-65
2021/05/14 14:01:55;;;;;;;0.43;0.40;;;;;;;;;;5030571;28;20427;-65
2021/05/14 14:04:21;;;;;;;0.93;0.63;;;;;;;;;;5030416;28;20382;-65
2021/05/14 14:06:47;;;;;;;0.60;0.60;;;;;;;;;;5030515;28;20413;-65
2021/05/14 14:09:13;;;;;;;0.50;0.50;;;;;;;;;;5029838;28;20465;-65
2021/05/14 14:11:39;;;;;;;0.40;0.40;;;;;;;;;;5032859;28;21264;-65
2021/05/14 14:14:05;;;;;;;0.40;0.40;;;;;;;;;;5034123;28;20451;-65
2021/05/14 14:16:31;;;;;;;0.50;0.50;;;;;;;;;;5034216;28;20746;-65
2021/05/14 14:18:58;;;;;;;0.50;0.43;;;;;;;;;;5033265;28;20409;-65
2021/05/14 14:21:24;;;;;;;0.50;0.50;;;;;;;;;;5034309;28;20411;-65
2021/05/14 14:23:50;;;;;;;0.40;0.40;;;;;;;;;;5034458;28;20417;-65
2021/05/14 14:26:16;;;;;;;0.50;0.47;;;;;;;;;;5033728;28;20795;-65
2021/05/14 14:28:42;;;;;;;0.50;0.50;;;;;;;;;;5033957;28;20423;-65
2021/05/14 14:31:08;;;;;;;2.00;0.70;;;;;;;;;;5033560;28;20438;-65
2021/05/14 14:33:34;;;;;;;0.40;0.30;;;;;;;;;;5033795;28;20436;-65
2021/05/14 14:36:00;;;;;;;0.40;0.40;;;;;;;;;;5033775;28;20462;-65
2021/05/14 14:38:26;;;;;;;0.90;0.90;;;;;;;;;;5033574;28;20431;-65
2021/05/14 14:40:52;;;;;;;0.90;0.90;;;;;;;;;;5033192;28;20457;-65
2021/05/14 14:43:18;;;;;;;0.90;0.87;;;;;;;;;;5033851;28;20404;-65
2021/05/14 14:45:46;;;;;;;0.80;0.80;;;;;;;;;;5033729;28;20489;-65